sensor_id;sensor_type;location;lat;lon;timestamp;P1;durP1;ratioP1;P2;durP2;ratioP2
1665;SDS011;831;48.308;14.294;2022-07-17T00:01:17;14.10;;;13.40;;
1665;SDS011;831;48.308;14.294;2022-07-17T00:03:44;14.43;;;13.70;;
1665;SDS011;831;48.308;14.294;2022-07-17T00:06:12;13.83;;;13.23;;
1665;SDS011;831;48.308;14.294;2022-07-17T00:08:40;14.18;;;13.48;;
1665;SDS011;831;48.308;14.294;2022-07-17T00:11:07;14.60;;;13.80;;
1665;SDS011;831;48.308;14.294;2022-07-17T00:13:34;13.60;;;12.87;;
1665;SDS011;831;48.308;14.294;2022-07-17T00:16:01;14.40;;;13.70;;
1665;SDS011;831;48.308;14.294;2022-07-17T00:18:28;13.90;;;13.20;;
1665;SDS011;831;48.308;14.294;2022-07-17T00:20:55;13.73;;;13.13;;
1665;SDS011;831;48.308;14.294;2022-07-17T00:23:22;14.50;;;13.70;;
1665;SDS011;831;48.308;14.294;2022-07-17T00:25:53;14.87;;;13.97;;
1665;SDS011;831;48.308;14.294;2022-07-17T00:28:20;14.30;;;13.70;;
1665;SDS011;831;48.308;14.294;2022-07-17T00:30:46;14.20;;;13.50;;
1665;SDS011;831;48.308;14.294;2022-07-17T00:33:13;14.37;;;13.63;;
1665;SDS011;831;48.308;14.294;2022-07-17T00:35:40;14.57;;;13.80;;
1665;SDS011;831;48.308;14.294;2022-07-17T00:38:07;13.93;;;13.23;;
1665;SDS011;831;48.308;14.294;2022-07-17T00:40:35;14.33;;;13.73;;
1665;SDS011;831;48.308;14.294;2022-07-17T00:43:03;14.00;;;13.40;;
1665;SDS011;831;48.308;14.294;2022-07-17T00:45:30;14.20;;;13.50;;
1665;SDS011;831;48.308;14.294;2022-07-17T00:47:57;13.87;;;13.17;;
1665;SDS011;831;48.308;14.294;2022-07-17T00:50:24;13.70;;;13.00;;
1665;SDS011;831;48.308;14.294;2022-07-17T00:52:51;14.10;;;13.23;;
1665;SDS011;831;48.308;14.294;2022-07-17T00:55:18;14.30;;;13.60;;
1665;SDS011;831;48.308;14.294;2022-07-17T00:57:46;14.20;;;13.60;;
1665;SDS011;831;48.308;14.294;2022-07-17T01:00:14;14.77;;;14.07;;
1665;SDS011;831;48.308;14.294;2022-07-17T01:02:43;14.23;;;13.53;;
1665;SDS011;831;48.308;14.294;2022-07-17T01:05:10;14.20;;;13.60;;
1665;SDS011;831;48.308;14.294;2022-07-17T01:07:37;13.73;;;13.10;;
1665;SDS011;831;48.308;14.294;2022-07-17T01:10:03;14.53;;;13.80;;
1665;SDS011;831;48.308;14.294;2022-07-17T01:12:31;14.60;;;13.90;;
1665;SDS011;831;48.308;14.294;2022-07-17T01:14:59;14.40;;;13.73;;
1665;SDS011;831;48.308;14.294;2022-07-17T01:17:27;14.60;;;13.70;;
1665;SDS011;831;48.308;14.294;2022-07-17T01:19:54;14.63;;;13.93;;
1665;SDS011;831;48.308;14.294;2022-07-17T01:22:22;14.70;;;14.00;;
1665;SDS011;831;48.308;14.294;2022-07-17T01:24:48;14.57;;;13.87;;
1665;SDS011;831;48.308;14.294;2022-07-17T01:27:15;14.27;;;13.60;;
1665;SDS011;831;48.308;14.294;2022-07-17T01:29:42;15.30;;;14.60;;
1665;SDS011;831;48.308;14.294;2022-07-17T01:32:08;15.10;;;14.40;;
1665;SDS011;831;48.308;14.294;2022-07-17T01:34:36;14.50;;;13.80;;
1665;SDS011;831;48.308;14.294;2022-07-17T01:37:02;14.83;;;14.07;;
1665;SDS011;831;48.308;14.294;2022-07-17T01:39:30;14.30;;;13.60;;
1665;SDS011;831;48.308;14.294;2022-07-17T01:42:14;14.23;;;13.60;;
1665;SDS011;831;48.308;14.294;2022-07-17T01:44:41;14.17;;;13.30;;
1665;SDS011;831;48.308;14.294;2022-07-17T01:47:07;14.43;;;13.73;;
1665;SDS011;831;48.308;14.294;2022-07-17T01:49:34;13.97;;;13.27;;
1665;SDS011;831;48.308;14.294;2022-07-17T01:52:00;14.43;;;13.73;;
1665;SDS011;831;48.308;14.294;2022-07-17T01:54:28;13.87;;;13.17;;
1665;SDS011;831;48.308;14.294;2022-07-17T01:56:56;14.40;;;13.60;;
1665;SDS011;831;48.308;14.294;2022-07-17T01:59:23;14.00;;;13.30;;
1665;SDS011;831;48.308;14.294;2022-07-17T02:01:49;13.37;;;12.77;;
1665;SDS011;831;48.308;14.294;2022-07-17T02:04:16;14.10;;;13.40;;
1665;SDS011;831;48.308;14.294;2022-07-17T02:06:42;13.97;;;13.37;;
1665;SDS011;831;48.308;14.294;2022-07-17T02:09:09;14.20;;;13.40;;
1665;SDS011;831;48.308;14.294;2022-07-17T02:11:35;13.73;;;13.13;;
1665;SDS011;831;48.308;14.294;2022-07-17T02:14:03;13.67;;;13.07;;
1665;SDS011;831;48.308;14.294;2022-07-17T02:16:30;14.23;;;13.50;;
1665;SDS011;831;48.308;14.294;2022-07-17T02:18:57;13.90;;;13.07;;
1665;SDS011;831;48.308;14.294;2022-07-17T02:21:23;13.30;;;12.67;;
1665;SDS011;831;48.308;14.294;2022-07-17T02:23:50;13.90;;;13.20;;
1665;SDS011;831;48.308;14.294;2022-07-17T02:26:16;13.60;;;13.00;;
1665;SDS011;831;48.308;14.294;2022-07-17T02:28:43;13.90;;;13.20;;
1665;SDS011;831;48.308;14.294;2022-07-17T02:31:11;13.90;;;13.20;;
1665;SDS011;831;48.308;14.294;2022-07-17T02:33:37;13.73;;;13.03;;
1665;SDS011;831;48.308;14.294;2022-07-17T02:36:04;13.93;;;13.13;;
1665;SDS011;831;48.308;14.294;2022-07-17T02:38:31;13.83;;;13.13;;
1665;SDS011;831;48.308;14.294;2022-07-17T02:40:58;13.70;;;13.00;;
1665;SDS011;831;48.308;14.294;2022-07-17T02:43:24;13.10;;;12.50;;
1665;SDS011;831;48.308;14.294;2022-07-17T02:45:51;14.00;;;13.20;;
1665;SDS011;831;48.308;14.294;2022-07-17T02:48:19;13.87;;;13.10;;
1665;SDS011;831;48.308;14.294;2022-07-17T02:50:45;13.40;;;12.70;;
1665;SDS011;831;48.308;14.294;2022-07-17T02:53:12;13.70;;;13.00;;
1665;SDS011;831;48.308;14.294;2022-07-17T02:55:39;13.20;;;12.60;;
1665;SDS011;831;48.308;14.294;2022-07-17T02:58:05;13.80;;;13.13;;
1665;SDS011;831;48.308;14.294;2022-07-17T03:00:32;14.07;;;13.27;;
1665;SDS011;831;48.308;14.294;2022-07-17T03:02:58;13.90;;;13.20;;
1665;SDS011;831;48.308;14.294;2022-07-17T03:05:26;14.00;;;13.30;;
1665;SDS011;831;48.308;14.294;2022-07-17T03:07:53;13.90;;;13.30;;
1665;SDS011;831;48.308;14.294;2022-07-17T03:10:20;13.87;;;13.27;;
1665;SDS011;831;48.308;14.294;2022-07-17T03:12:46;13.73;;;12.97;;
1665;SDS011;831;48.308;14.294;2022-07-17T03:15:13;13.63;;;13.03;;
1665;SDS011;831;48.308;14.294;2022-07-17T03:17:40;14.40;;;13.60;;
1665;SDS011;831;48.308;14.294;2022-07-17T03:20:08;14.10;;;13.40;;
1665;SDS011;831;48.308;14.294;2022-07-17T03:22:36;14.33;;;13.63;;
1665;SDS011;831;48.308;14.294;2022-07-17T03:25:03;13.73;;;13.13;;
1665;SDS011;831;48.308;14.294;2022-07-17T03:27:30;13.63;;;12.93;;
1665;SDS011;831;48.308;14.294;2022-07-17T03:29:57;13.70;;;13.10;;
1665;SDS011;831;48.308;14.294;2022-07-17T03:32:23;13.60;;;13.00;;
1665;SDS011;831;48.308;14.294;2022-07-17T03:34:50;13.63;;;13.00;;
1665;SDS011;831;48.308;14.294;2022-07-17T03:37:17;13.90;;;13.20;;
1665;SDS011;831;48.308;14.294;2022-07-17T03:39:45;13.40;;;12.80;;
1665;SDS011;831;48.308;14.294;2022-07-17T03:42:11;13.50;;;12.90;;
1665;SDS011;831;48.308;14.294;2022-07-17T03:44:38;13.63;;;12.93;;
1665;SDS011;831;48.308;14.294;2022-07-17T03:47:04;14.50;;;13.80;;
1665;SDS011;831;48.308;14.294;2022-07-17T03:49:31;14.77;;;14.07;;
1665;SDS011;831;48.308;14.294;2022-07-17T03:51:58;14.20;;;13.50;;
1665;SDS011;831;48.308;14.294;2022-07-17T03:54:24;15.23;;;14.53;;
1665;SDS011;831;48.308;14.294;2022-07-17T03:56:52;14.07;;;13.27;;
1665;SDS011;831;48.308;14.294;2022-07-17T03:59:19;14.10;;;13.40;;
1665;SDS011;831;48.308;14.294;2022-07-17T04:01:45;13.87;;;13.17;;
1665;SDS011;831;48.308;14.294;2022-07-17T04:04:13;14.23;;;13.63;;
1665;SDS011;831;48.308;14.294;2022-07-17T04:06:39;13.97;;;13.37;;
1665;SDS011;831;48.308;14.294;2022-07-17T04:09:06;14.10;;;13.37;;
1665;SDS011;831;48.308;14.294;2022-07-17T04:11:32;14.90;;;14.20;;
1665;SDS011;831;48.308;14.294;2022-07-17T04:14:00;14.50;;;13.73;;
1665;SDS011;831;48.308;14.294;2022-07-17T04:16:27;14.33;;;13.63;;
1665;SDS011;831;48.308;14.294;2022-07-17T04:18:53;14.90;;;14.20;;
1665;SDS011;831;48.308;14.294;2022-07-17T04:21:20;14.47;;;13.77;;
1665;SDS011;831;48.308;14.294;2022-07-17T04:23:46;14.37;;;13.63;;
1665;SDS011;831;48.308;14.294;2022-07-17T04:26:13;13.90;;;13.30;;
1665;SDS011;831;48.308;14.294;2022-07-17T04:28:39;13.07;;;12.40;;
1665;SDS011;831;48.308;14.294;2022-07-17T04:31:07;13.33;;;12.73;;
1665;SDS011;831;48.308;14.294;2022-07-17T04:33:34;13.60;;;13.00;;
1665;SDS011;831;48.308;14.294;2022-07-17T04:36:01;13.90;;;13.30;;
1665;SDS011;831;48.308;14.294;2022-07-17T04:38:27;14.00;;;13.20;;
1665;SDS011;831;48.308;14.294;2022-07-17T04:40:54;13.97;;;13.27;;
1665;SDS011;831;48.308;14.294;2022-07-17T04:43:20;14.37;;;13.67;;
1665;SDS011;831;48.308;14.294;2022-07-17T04:45:47;14.20;;;13.50;;
1665;SDS011;831;48.308;14.294;2022-07-17T04:48:15;14.20;;;13.40;;
1665;SDS011;831;48.308;14.294;2022-07-17T04:50:41;14.43;;;13.73;;
1665;SDS011;831;48.308;14.294;2022-07-17T04:53:08;13.83;;;13.17;;
1665;SDS011;831;48.308;14.294;2022-07-17T04:55:34;13.30;;;12.70;;
1665;SDS011;831;48.308;14.294;2022-07-17T04:58:02;14.30;;;13.60;;
1665;SDS011;831;48.308;14.294;2022-07-17T05:00:28;14.07;;;13.27;;
1665;SDS011;831;48.308;14.294;2022-07-17T05:02:55;13.90;;;13.30;;
1665;SDS011;831;48.308;14.294;2022-07-17T05:05:23;14.00;;;13.30;;
1665;SDS011;831;48.308;14.294;2022-07-17T05:07:49;13.40;;;12.80;;
1665;SDS011;831;48.308;14.294;2022-07-17T05:10:16;14.23;;;13.43;;
1665;SDS011;831;48.308;14.294;2022-07-17T05:12:43;14.43;;;13.63;;
1665;SDS011;831;48.308;14.294;2022-07-17T05:15:09;13.90;;;13.30;;
1665;SDS011;831;48.308;14.294;2022-07-17T05:17:36;14.27;;;13.53;;
1665;SDS011;831;48.308;14.294;2022-07-17T05:20:03;14.43;;;13.63;;
1665;SDS011;831;48.308;14.294;2022-07-17T05:22:31;14.47;;;13.67;;
1665;SDS011;831;48.308;14.294;2022-07-17T05:24:58;14.07;;;13.40;;
1665;SDS011;831;48.308;14.294;2022-07-17T05:27:24;14.20;;;13.50;;
1665;SDS011;831;48.308;14.294;2022-07-17T05:29:51;14.83;;;13.73;;
1665;SDS011;831;48.308;14.294;2022-07-17T05:32:18;14.50;;;13.70;;
1665;SDS011;831;48.308;14.294;2022-07-17T05:34:44;14.60;;;13.80;;
1665;SDS011;831;48.308;14.294;2022-07-17T05:37:11;15.13;;;14.17;;
1665;SDS011;831;48.308;14.294;2022-07-17T05:39:39;15.10;;;14.13;;
1665;SDS011;831;48.308;14.294;2022-07-17T05:42:05;15.33;;;14.47;;
1665;SDS011;831;48.308;14.294;2022-07-17T05:44:32;14.57;;;13.77;;
1665;SDS011;831;48.308;14.294;2022-07-17T05:46:59;14.57;;;13.80;;
1665;SDS011;831;48.308;14.294;2022-07-17T05:49:25;14.60;;;13.80;;
1665;SDS011;831;48.308;14.294;2022-07-17T05:51:52;15.13;;;14.33;;
1665;SDS011;831;48.308;14.294;2022-07-17T05:54:18;14.40;;;13.60;;
1665;SDS011;831;48.308;14.294;2022-07-17T05:56:46;14.40;;;13.53;;
1665;SDS011;831;48.308;14.294;2022-07-17T05:59:13;14.37;;;13.67;;
1665;SDS011;831;48.308;14.294;2022-07-17T06:01:40;14.47;;;13.53;;
1665;SDS011;831;48.308;14.294;2022-07-17T06:04:07;14.67;;;13.90;;
1665;SDS011;831;48.308;14.294;2022-07-17T06:06:33;14.30;;;13.60;;
1665;SDS011;831;48.308;14.294;2022-07-17T06:09:00;13.70;;;13.00;;
1665;SDS011;831;48.308;14.294;2022-07-17T06:11:26;12.83;;;12.23;;
1665;SDS011;831;48.308;14.294;2022-07-17T06:13:54;13.50;;;12.60;;
1665;SDS011;831;48.308;14.294;2022-07-17T06:16:21;13.50;;;12.70;;
1665;SDS011;831;48.308;14.294;2022-07-17T06:18:48;12.60;;;12.10;;
1665;SDS011;831;48.308;14.294;2022-07-17T06:21:14;13.10;;;12.50;;
1665;SDS011;831;48.308;14.294;2022-07-17T06:23:41;13.03;;;12.40;;
1665;SDS011;831;48.308;14.294;2022-07-17T06:26:07;13.73;;;13.03;;
1665;SDS011;831;48.308;14.294;2022-07-17T06:28:34;14.23;;;13.53;;
1665;SDS011;831;48.308;14.294;2022-07-17T06:31:02;13.50;;;12.90;;
1665;SDS011;831;48.308;14.294;2022-07-17T06:33:28;13.47;;;12.87;;
1665;SDS011;831;48.308;14.294;2022-07-17T06:35:55;13.60;;;13.00;;
1665;SDS011;831;48.308;14.294;2022-07-17T06:38:21;12.80;;;12.30;;
1665;SDS011;831;48.308;14.294;2022-07-17T06:40:48;12.80;;;12.20;;
1665;SDS011;831;48.308;14.294;2022-07-17T06:43:14;13.40;;;12.70;;
1665;SDS011;831;48.308;14.294;2022-07-17T06:45:41;12.47;;;11.97;;
1665;SDS011;831;48.308;14.294;2022-07-17T06:48:09;13.03;;;12.43;;
1665;SDS011;831;48.308;14.294;2022-07-17T06:50:36;13.13;;;12.53;;
1665;SDS011;831;48.308;14.294;2022-07-17T06:53:02;12.83;;;12.20;;
1665;SDS011;831;48.308;14.294;2022-07-17T06:55:29;12.80;;;12.20;;
1665;SDS011;831;48.308;14.294;2022-07-17T06:57:55;13.43;;;12.70;;
1665;SDS011;831;48.308;14.294;2022-07-17T07:00:22;12.97;;;12.37;;
1665;SDS011;831;48.308;14.294;2022-07-17T07:02:48;12.60;;;12.00;;
1665;SDS011;831;48.308;14.294;2022-07-17T07:05:16;12.63;;;12.07;;
1665;SDS011;831;48.308;14.294;2022-07-17T07:07:43;12.83;;;12.07;;
1665;SDS011;831;48.308;14.294;2022-07-17T07:10:10;13.30;;;12.60;;
1665;SDS011;831;48.308;14.294;2022-07-17T07:12:36;13.80;;;13.20;;
1665;SDS011;831;48.308;14.294;2022-07-17T07:15:03;13.13;;;12.53;;
1665;SDS011;831;48.308;14.294;2022-07-17T07:17:30;13.63;;;13.03;;
1665;SDS011;831;48.308;14.294;2022-07-17T07:19:57;13.33;;;12.70;;
1665;SDS011;831;48.308;14.294;2022-07-17T07:22:25;14.30;;;13.40;;
1665;SDS011;831;48.308;14.294;2022-07-17T07:24:52;13.60;;;12.90;;
1665;SDS011;831;48.308;14.294;2022-07-17T07:27:18;13.67;;;12.90;;
1665;SDS011;831;48.308;14.294;2022-07-17T07:29:45;13.20;;;12.60;;
1665;SDS011;831;48.308;14.294;2022-07-17T07:32:12;13.30;;;12.70;;
1665;SDS011;831;48.308;14.294;2022-07-17T07:34:38;13.10;;;12.30;;
1665;SDS011;831;48.308;14.294;2022-07-17T07:37:05;13.47;;;12.87;;
1665;SDS011;831;48.308;14.294;2022-07-17T07:39:33;13.10;;;12.50;;
1665;SDS011;831;48.308;14.294;2022-07-17T07:41:59;13.33;;;12.73;;
1665;SDS011;831;48.308;14.294;2022-07-17T07:44:26;13.63;;;12.93;;
1665;SDS011;831;48.308;14.294;2022-07-17T07:46:52;13.50;;;12.90;;
1665;SDS011;831;48.308;14.294;2022-07-17T07:49:19;13.50;;;12.90;;
1665;SDS011;831;48.308;14.294;2022-07-17T07:51:45;13.57;;;12.97;;
1665;SDS011;831;48.308;14.294;2022-07-17T07:54:12;14.30;;;13.60;;
1665;SDS011;831;48.308;14.294;2022-07-17T07:56:40;13.50;;;12.90;;
1665;SDS011;831;48.308;14.294;2022-07-17T07:59:07;14.00;;;13.20;;
1665;SDS011;831;48.308;14.294;2022-07-17T08:01:33;13.17;;;12.57;;
1665;SDS011;831;48.308;14.294;2022-07-17T08:04:00;13.00;;;12.40;;
1665;SDS011;831;48.308;14.294;2022-07-17T08:06:27;13.40;;;12.70;;
1665;SDS011;831;48.308;14.294;2022-07-17T08:08:53;13.20;;;12.60;;
1665;SDS011;831;48.308;14.294;2022-07-17T08:11:20;13.50;;;12.80;;
1665;SDS011;831;48.308;14.294;2022-07-17T08:13:48;12.93;;;12.32;;
1665;SDS011;831;48.308;14.294;2022-07-17T08:16:14;12.97;;;12.40;;
1665;SDS011;831;48.308;14.294;2022-07-17T08:18:41;13.10;;;12.50;;
1665;SDS011;831;48.308;14.294;2022-07-17T08:21:07;13.30;;;12.70;;
1665;SDS011;831;48.308;14.294;2022-07-17T08:23:34;12.87;;;12.27;;
1665;SDS011;831;48.308;14.294;2022-07-17T08:26:01;13.60;;;12.90;;
1665;SDS011;831;48.308;14.294;2022-07-17T08:28:28;13.47;;;12.87;;
1665;SDS011;831;48.308;14.294;2022-07-17T08:30:56;13.30;;;12.70;;
1665;SDS011;831;48.308;14.294;2022-07-17T08:33:22;13.20;;;12.50;;
1665;SDS011;831;48.308;14.294;2022-07-17T08:35:49;13.37;;;12.67;;
1665;SDS011;831;48.308;14.294;2022-07-17T08:38:15;13.20;;;12.60;;
1665;SDS011;831;48.308;14.294;2022-07-17T08:40:42;14.33;;;13.63;;
1665;SDS011;831;48.308;14.294;2022-07-17T08:43:13;13.63;;;13.00;;
1665;SDS011;831;48.308;14.294;2022-07-17T08:45:39;13.00;;;12.40;;
1665;SDS011;831;48.308;14.294;2022-07-17T08:48:09;13.30;;;12.70;;
1665;SDS011;831;48.308;14.294;2022-07-17T08:50:37;13.50;;;12.70;;
1665;SDS011;831;48.308;14.294;2022-07-17T08:53:03;12.80;;;12.20;;
1665;SDS011;831;48.308;14.294;2022-07-17T08:55:30;13.70;;;13.00;;
1665;SDS011;831;48.308;14.294;2022-07-17T08:57:57;12.83;;;12.23;;
1665;SDS011;831;48.308;14.294;2022-07-17T09:00:24;12.80;;;12.30;;
1665;SDS011;831;48.308;14.294;2022-07-17T09:02:55;13.30;;;12.70;;
1665;SDS011;831;48.308;14.294;2022-07-17T09:05:24;13.63;;;12.90;;
1665;SDS011;831;48.308;14.294;2022-07-17T09:07:51;13.50;;;12.90;;
1665;SDS011;831;48.308;14.294;2022-07-17T09:10:17;13.17;;;12.53;;
1665;SDS011;831;48.308;14.294;2022-07-17T09:12:44;13.10;;;12.50;;
1665;SDS011;831;48.308;14.294;2022-07-17T09:15:15;13.10;;;12.50;;
1665;SDS011;831;48.308;14.294;2022-07-17T09:17:47;13.20;;;12.60;;
1665;SDS011;831;48.308;14.294;2022-07-17T09:20:13;13.30;;;12.70;;
1665;SDS011;831;48.308;14.294;2022-07-17T09:22:43;13.43;;;12.73;;
1665;SDS011;831;48.308;14.294;2022-07-17T09:25:10;13.10;;;12.40;;
1665;SDS011;831;48.308;14.294;2022-07-17T09:27:36;13.23;;;12.63;;
1665;SDS011;831;48.308;14.294;2022-07-17T09:30:04;13.57;;;12.90;;
1665;SDS011;831;48.308;14.294;2022-07-17T09:32:32;13.30;;;12.60;;
1665;SDS011;831;48.308;14.294;2022-07-17T09:34:59;13.07;;;12.50;;
1665;SDS011;831;48.308;14.294;2022-07-17T09:37:26;12.90;;;12.30;;
1665;SDS011;831;48.308;14.294;2022-07-17T09:39:55;12.80;;;12.20;;
1665;SDS011;831;48.308;14.294;2022-07-17T09:42:23;13.00;;;12.40;;
1665;SDS011;831;48.308;14.294;2022-07-17T09:44:57;13.50;;;12.80;;
1665;SDS011;831;48.308;14.294;2022-07-17T09:47:24;13.27;;;12.67;;
1665;SDS011;831;48.308;14.294;2022-07-17T09:49:52;13.10;;;12.50;;
1665;SDS011;831;48.308;14.294;2022-07-17T09:52:19;12.80;;;12.20;;
1665;SDS011;831;48.308;14.294;2022-07-17T09:54:45;13.13;;;12.53;;
1665;SDS011;831;48.308;14.294;2022-07-17T09:57:15;13.70;;;13.07;;
1665;SDS011;831;48.308;14.294;2022-07-17T09:59:42;13.67;;;12.90;;
1665;SDS011;831;48.308;14.294;2022-07-17T10:02:09;13.73;;;13.13;;
1665;SDS011;831;48.308;14.294;2022-07-17T10:04:35;13.50;;;12.90;;
1665;SDS011;831;48.308;14.294;2022-07-17T10:07:02;13.70;;;13.00;;
1665;SDS011;831;48.308;14.294;2022-07-17T10:09:29;13.57;;;12.87;;
1665;SDS011;831;48.308;14.294;2022-07-17T10:11:56;14.20;;;13.30;;
1665;SDS011;831;48.308;14.294;2022-07-17T10:14:24;14.10;;;13.40;;
1665;SDS011;831;48.308;14.294;2022-07-17T10:16:51;14.10;;;13.30;;
1665;SDS011;831;48.308;14.294;2022-07-17T10:19:18;13.33;;;12.73;;
1665;SDS011;831;48.308;14.294;2022-07-17T10:21:52;13.10;;;12.50;;
1665;SDS011;831;48.308;14.294;2022-07-17T10:24:19;14.03;;;13.37;;
1665;SDS011;831;48.308;14.294;2022-07-17T10:26:45;14.10;;;13.30;;
1665;SDS011;831;48.308;14.294;2022-07-17T10:29:28;13.70;;;13.10;;
1665;SDS011;831;48.308;14.294;2022-07-17T10:31:55;13.10;;;12.50;;
1665;SDS011;831;48.308;14.294;2022-07-17T10:34:35;13.50;;;12.70;;
1665;SDS011;831;48.308;14.294;2022-07-17T10:37:08;12.97;;;12.37;;
1665;SDS011;831;48.308;14.294;2022-07-17T10:39:39;12.40;;;11.80;;
1665;SDS011;831;48.308;14.294;2022-07-17T10:42:06;13.70;;;13.10;;
1665;SDS011;831;48.308;14.294;2022-07-17T10:44:34;12.83;;;12.23;;
1665;SDS011;831;48.308;14.294;2022-07-17T10:47:00;13.20;;;12.60;;
1665;SDS011;831;48.308;14.294;2022-07-17T10:49:27;13.43;;;12.70;;
1665;SDS011;831;48.308;14.294;2022-07-17T10:51:54;12.90;;;12.20;;
1665;SDS011;831;48.308;14.294;2022-07-17T10:54:20;13.60;;;12.90;;
1665;SDS011;831;48.308;14.294;2022-07-17T10:57:00;13.00;;;12.30;;
1665;SDS011;831;48.308;14.294;2022-07-17T10:59:27;13.03;;;12.43;;
1665;SDS011;831;48.308;14.294;2022-07-17T11:01:56;12.97;;;12.27;;
1665;SDS011;831;48.308;14.294;2022-07-17T11:04:23;12.93;;;12.33;;
1665;SDS011;831;48.308;14.294;2022-07-17T11:06:50;12.90;;;12.10;;
1665;SDS011;831;48.308;14.294;2022-07-17T11:09:16;12.30;;;11.70;;
1665;SDS011;831;48.308;14.294;2022-07-17T11:11:43;12.73;;;12.13;;
1665;SDS011;831;48.308;14.294;2022-07-17T11:14:11;13.20;;;12.47;;
1665;SDS011;831;48.308;14.294;2022-07-17T11:16:43;13.20;;;12.60;;
1665;SDS011;831;48.308;14.294;2022-07-17T11:19:11;13.10;;;12.47;;
1665;SDS011;831;48.308;14.294;2022-07-17T11:21:44;13.03;;;12.53;;
1665;SDS011;831;48.308;14.294;2022-07-17T11:24:11;12.80;;;12.20;;
1665;SDS011;831;48.308;14.294;2022-07-17T11:26:37;12.93;;;12.33;;
1665;SDS011;831;48.308;14.294;2022-07-17T11:29:04;12.33;;;11.73;;
1665;SDS011;831;48.308;14.294;2022-07-17T11:31:30;12.17;;;11.67;;
1665;SDS011;831;48.308;14.294;2022-07-17T11:33:57;12.90;;;12.30;;
1665;SDS011;831;48.308;14.294;2022-07-17T11:36:28;13.00;;;12.40;;
1665;SDS011;831;48.308;14.294;2022-07-17T11:38:56;12.93;;;12.33;;
1665;SDS011;831;48.308;14.294;2022-07-17T11:41:30;13.53;;;12.93;;
1665;SDS011;831;48.308;14.294;2022-07-17T11:43:56;13.13;;;12.43;;
1665;SDS011;831;48.308;14.294;2022-07-17T11:46:23;13.13;;;12.50;;
1665;SDS011;831;48.308;14.294;2022-07-17T11:48:49;13.27;;;12.67;;
1665;SDS011;831;48.308;14.294;2022-07-17T11:51:16;13.17;;;12.47;;
1665;SDS011;831;48.308;14.294;2022-07-17T11:53:45;13.30;;;12.60;;
1665;SDS011;831;48.308;14.294;2022-07-17T11:56:18;13.43;;;12.83;;
1665;SDS011;831;48.308;14.294;2022-07-17T11:58:45;13.27;;;12.67;;
1665;SDS011;831;48.308;14.294;2022-07-17T12:01:13;13.43;;;12.83;;
1665;SDS011;831;48.308;14.294;2022-07-17T12:03:40;13.30;;;12.70;;
1665;SDS011;831;48.308;14.294;2022-07-17T12:06:06;12.77;;;12.17;;
1665;SDS011;831;48.308;14.294;2022-07-17T12:08:33;13.57;;;12.97;;
1665;SDS011;831;48.308;14.294;2022-07-17T12:11:05;13.30;;;12.60;;
1665;SDS011;831;48.308;14.294;2022-07-17T12:13:39;13.50;;;12.80;;
1665;SDS011;831;48.308;14.294;2022-07-17T12:16:19;12.97;;;12.37;;
1665;SDS011;831;48.308;14.294;2022-07-17T12:18:54;13.10;;;12.50;;
1665;SDS011;831;48.308;14.294;2022-07-17T12:21:21;13.00;;;12.40;;
1665;SDS011;831;48.308;14.294;2022-07-17T12:23:55;13.10;;;12.50;;
1665;SDS011;831;48.308;14.294;2022-07-17T12:26:23;13.97;;;13.17;;
1665;SDS011;831;48.308;14.294;2022-07-17T12:28:50;13.17;;;12.57;;
1665;SDS011;831;48.308;14.294;2022-07-17T12:31:17;13.13;;;12.50;;
1665;SDS011;831;48.308;14.294;2022-07-17T12:33:45;13.73;;;12.93;;
1665;SDS011;831;48.308;14.294;2022-07-17T12:36:12;13.17;;;12.57;;
1665;SDS011;831;48.308;14.294;2022-07-17T12:38:38;13.47;;;12.87;;
1665;SDS011;831;48.308;14.294;2022-07-17T12:41:05;12.50;;;11.90;;
1665;SDS011;831;48.308;14.294;2022-07-17T12:43:33;12.93;;;12.33;;
1665;SDS011;831;48.308;14.294;2022-07-17T12:46:00;13.50;;;12.80;;
1665;SDS011;831;48.308;14.294;2022-07-17T12:48:26;12.70;;;12.10;;
1665;SDS011;831;48.308;14.294;2022-07-17T12:50:53;12.40;;;11.83;;
1665;SDS011;831;48.308;14.294;2022-07-17T12:53:19;12.90;;;12.30;;
1665;SDS011;831;48.308;14.294;2022-07-17T12:55:46;13.70;;;12.90;;
1665;SDS011;831;48.308;14.294;2022-07-17T12:58:13;12.90;;;12.27;;
1665;SDS011;831;48.308;14.294;2022-07-17T13:00:41;13.70;;;13.03;;
1665;SDS011;831;48.308;14.294;2022-07-17T13:03:07;12.50;;;11.90;;
1665;SDS011;831;48.308;14.294;2022-07-17T13:05:34;12.17;;;11.67;;
1665;SDS011;831;48.308;14.294;2022-07-17T13:08:01;12.67;;;12.10;;
1665;SDS011;831;48.308;14.294;2022-07-17T13:10:27;12.40;;;11.90;;
1665;SDS011;831;48.308;14.294;2022-07-17T13:12:54;12.60;;;12.10;;
1665;SDS011;831;48.308;14.294;2022-07-17T13:15:21;12.63;;;12.03;;
1665;SDS011;831;48.308;14.294;2022-07-17T13:17:49;13.03;;;12.40;;
1665;SDS011;831;48.308;14.294;2022-07-17T13:20:15;12.80;;;12.20;;
1665;SDS011;831;48.308;14.294;2022-07-17T13:22:42;12.50;;;12.00;;
1665;SDS011;831;48.308;14.294;2022-07-17T13:25:08;12.60;;;12.10;;
1665;SDS011;831;48.308;14.294;2022-07-17T13:27:35;13.10;;;12.50;;
1665;SDS011;831;48.308;14.294;2022-07-17T13:30:02;13.10;;;12.47;;
1665;SDS011;831;48.308;14.294;2022-07-17T13:32:28;13.17;;;12.57;;
1665;SDS011;831;48.308;14.294;2022-07-17T13:34:56;13.30;;;12.70;;
1665;SDS011;831;48.308;14.294;2022-07-17T13:37:23;13.10;;;12.50;;
1665;SDS011;831;48.308;14.294;2022-07-17T13:39:49;12.27;;;11.77;;
1665;SDS011;831;48.308;14.294;2022-07-17T13:42:16;12.73;;;12.23;;
1665;SDS011;831;48.308;14.294;2022-07-17T13:44:43;12.60;;;12.10;;
1665;SDS011;831;48.308;14.294;2022-07-17T13:47:09;12.50;;;11.90;;
1665;SDS011;831;48.308;14.294;2022-07-17T13:49:36;12.30;;;11.80;;
1665;SDS011;831;48.308;14.294;2022-07-17T13:52:04;12.70;;;12.00;;
1665;SDS011;831;48.308;14.294;2022-07-17T13:54:31;12.63;;;12.03;;
1665;SDS011;831;48.308;14.294;2022-07-17T13:56:57;12.53;;;12.00;;
1665;SDS011;831;48.308;14.294;2022-07-17T13:59:25;12.63;;;12.03;;
1665;SDS011;831;48.308;14.294;2022-07-17T14:01:51;12.50;;;11.90;;
1665;SDS011;831;48.308;14.294;2022-07-17T14:04:18;12.47;;;11.80;;
1665;SDS011;831;48.308;14.294;2022-07-17T14:06:44;12.80;;;12.20;;
1665;SDS011;831;48.308;14.294;2022-07-17T14:09:12;12.17;;;11.57;;
1665;SDS011;831;48.308;14.294;2022-07-17T14:11:39;12.93;;;12.20;;
1665;SDS011;831;48.308;14.294;2022-07-17T14:14:06;12.37;;;11.77;;
1665;SDS011;831;48.308;14.294;2022-07-17T14:16:33;12.47;;;11.90;;
1665;SDS011;831;48.308;14.294;2022-07-17T14:18:59;12.53;;;12.00;;
1665;SDS011;831;48.308;14.294;2022-07-17T14:21:26;12.93;;;12.33;;
1665;SDS011;831;48.308;14.294;2022-07-17T14:23:53;12.33;;;11.83;;
1665;SDS011;831;48.308;14.294;2022-07-17T14:26:21;12.67;;;12.17;;
1665;SDS011;831;48.308;14.294;2022-07-17T14:28:47;12.43;;;11.83;;
1665;SDS011;831;48.308;14.294;2022-07-17T14:31:14;12.47;;;11.90;;
1665;SDS011;831;48.308;14.294;2022-07-17T14:33:41;12.30;;;11.50;;
1665;SDS011;831;48.308;14.294;2022-07-17T14:36:08;12.53;;;11.93;;
1665;SDS011;831;48.308;14.294;2022-07-17T14:38:34;12.37;;;11.77;;
1665;SDS011;831;48.308;14.294;2022-07-17T14:41:01;12.30;;;11.80;;
1665;SDS011;831;48.308;14.294;2022-07-17T14:43:29;12.10;;;11.60;;
1665;SDS011;831;48.308;14.294;2022-07-17T14:45:55;12.53;;;11.93;;
1665;SDS011;831;48.308;14.294;2022-07-17T14:48:22;12.43;;;11.70;;